Flight Track Log - Related Links

Times and Time Zones

All times are in EDT time to prevent confusion due to time zone crossing. See the SWA1881 flight status page for this flight to view local times or setup timezone preferences in your user account.

Time Position Orientation Groundspeed Altitude Reporting Facility
EDT Latitude Longitude Course Direction KTS MPH feet Rate Location/Type
Thu 12:49:14 PM 41.8010 -87.7840 273° West 168 193 1,900  Level FlightAware ADS-B
Thu 12:49:39 PM 41.7940 -87.8110 251° West 201 231 2,400 1,038 Climbing FlightAware ADS-B
Thu 12:50:06 PM 41.7830 -87.8440 246° West 246 283 2,800 923 Climbing FlightAware ADS-B
Thu 12:50:18 PM 41.7770 -87.8610 245° Southwest 266 306 3,000 1,200 Climbing FlightAware ADS-B
Thu 12:50:51 PM 41.7630 -87.9120 250° West 260 299 3,700 814 Climbing FlightAware ADS-B
Thu 12:51:17 PM 41.7500 -87.9530 247° West 265 305 3,800 146 Climbing FlightAware ADS-B
Thu 12:51:32 PM 41.7430 -87.9740 246° West 265 305 3,800 136 Level FlightAware ADS-B
Thu 12:52:01 PM 41.7300 -88.0180 248° West 265 305 3,900  Climbing FlightAware ADS-B
Thu 12:52:29 PM 41.7170 -88.0600 247° West 265 305 3,800  Descending FlightAware ADS-B
Thu 12:52:41 PM 41.7120 -88.0790 251° West 263 303 3,900  Climbing FlightAware ADS-B
Thu 12:52:53 PM 41.7150 -88.0980 282° West 262 302 3,800 286 Descending FlightAware ADS-B
Thu 12:53:23 PM 41.7260 -88.1450 287° West 260 299 4,100 1,368 Climbing FlightAware ADS-B
Thu 12:53:50 PM 41.7350 -88.1870 286° West 265 305 5,100 1,821 Climbing FlightAware ADS-B
Thu 12:54:19 PM 41.7430 -88.2340 283° West 269 310 5,800 1,067 Climbing FlightAware ADS-B
Thu 12:54:35 PM 41.7490 -88.2600 287° West 268 308 5,900 1,000 Climbing FlightAware ADS-B
Thu 12:55:01 PM 41.7570 -88.3010 285° West 272 313 6,500 2,400 Climbing FlightAware ADS-B
Thu 12:55:25 PM 41.7650 -88.3400 285° West 270 311 7,900 3,220 Climbing FlightAware ADS-B
Thu 12:55:42 PM 41.7660 -88.3710 272° West 281 323 8,700 2,800 Climbing FlightAware ADS-B
Thu 12:56:25 PM 41.7610 -88.4440 265° West 295 339 10,700 1,880 Climbing FlightAware ADS-B
Thu 12:57:05 PM 41.7560 -88.5260 265° West 350 403 11,300 1,571 Climbing FlightAware ADS-B
Thu 12:57:49 PM 41.7500 -88.6250 265° West 373 429 12,900 2,416 Climbing FlightAware ADS-B
Thu 12:58:22 PM 41.7410 -88.6980 261° West 378 435 14,400 2,338 Climbing FlightAware ADS-B
Thu 12:59:06 PM 41.7210 -88.7950 255° West 393 452 15,900 2,250 Climbing FlightAware ADS-B
Thu 12:59:50 PM 41.6970 -88.9080 254° West 403 464 17,700 2,400 Climbing FlightAware ADS-B
Thu 01:00:26 PM 41.6780 -88.9960 254° West 407 468 19,100 2,444 Climbing FlightAware ADS-B
Thu 01:01:11 PM 41.6560 -89.1010 254° West 405 466 21,000 2,250 Climbing FlightAware ADS-B
Thu 01:01:54 PM 41.6330 -89.2090 254° West 412 474 22,400 1,735 Climbing FlightAware ADS-B
Thu 01:02:34 PM 41.6130 -89.3040 254° West 420 483 23,400 1,537 Climbing FlightAware ADS-B
Thu 01:03:16 PM 41.5910 -89.4090 254° West 429 494 24,500 1,595 Climbing FlightAware ADS-B
Thu 01:03:53 PM 41.5700 -89.5070 254° West 434 499 25,500 1,385 Climbing FlightAware ADS-B
Thu 01:04:34 PM 41.5470 -89.6150 254° West 445 512 26,300 1,129 Climbing FlightAware ADS-B
Thu 01:05:18 PM 41.5220 -89.7310 254° West 455 524 27,100 1,143 Climbing FlightAware ADS-B
Thu 01:05:58 PM 41.4980 -89.8400 254° West 460 529 27,900 1,643 Climbing FlightAware ADS-B
Thu 01:06:42 PM 41.4730 -89.9540 254° West 449 517 29,400 1,929 Climbing FlightAware ADS-B
Thu 01:07:22 PM 41.4490 -90.0630 254° West 440 506 30,600 1,756 Climbing FlightAware ADS-B
Thu 01:08:04 PM 41.4250 -90.1700 253° West 432 497 31,800 1,615 Climbing FlightAware ADS-B
Thu 01:08:40 PM 41.4050 -90.2620 254° West 426 490 32,700 1,500 Climbing FlightAware ADS-B
Thu 01:09:24 PM 41.3810 -90.3690 253° West 419 482 33,800 929 Climbing FlightAware ADS-B
Thu 01:10:04 PM 41.3590 -90.4670 253° West 416 479 34,000 167 Climbing FlightAware ADS-B
Thu 01:10:36 PM 41.3410 -90.5480 254° West 416 479 34,000  Level FlightAware ADS-B
Thu 01:11:23 PM 41.3140 -90.6620 253° West 418 481 34,000 63 Level FlightAware ADS-B
Thu 01:12:12 PM 41.2790 -90.7800 248° West 418 481 34,100 261 Climbing FlightAware ADS-B
Thu 01:12:55 PM 41.2510 -90.8730 248° West 417 480 34,400 1,019 Climbing FlightAware ADS-B
Thu 01:13:58 PM 41.2060 -91.0270 249° West 413 475 35,900 950 Climbing FlightAware ADS-B
Thu 01:14:36 PM 41.1780 -91.1200 248° West 415 478 36,000 69 Climbing FlightAware ADS-B
Thu 01:15:25 PM 41.1550 -91.2360 255° West 405 466 36,000  Level FlightAware ADS-B
Thu 01:16:08 PM 41.1410 -91.3400 260° West 403 464 36,000  Level FlightAware ADS-B
Thu 01:16:47 PM 41.1280 -91.4280 259° West 403 464 36,000  Level FlightAware ADS-B
Thu 01:18:11 PM 41.1010 -91.6220 260° West 398 458 36,000  Level FlightAware ADS-B
Thu 01:18:50 PM 41.0860 -91.7310 260° West 395 455 36,000  Level FlightAware ADS-B
Thu 01:19:48 PM 41.0670 -91.8600 259° West 394 453 36,000  Level FlightAware ADS-B
Thu 01:20:28 PM 41.0530 -91.9640 260° West 392 451 36,000  Level FlightAware ADS-B
Thu 01:21:20 PM 41.0360 -92.0760 259° West 391 450 36,000  Level FlightAware ADS-B
Thu 01:22:08 PM 41.0220 -92.1720 259° West 391 450 36,000  Level FlightAware ADS-B
Thu 01:22:36 PM 41.0100 -92.2600 260° West 387 445 36,000  Level FlightAware ADS-B
Thu 01:23:16 PM 40.9970 -92.3380 258° West 387 445 36,000  Level FlightAware ADS-B
Thu 01:24:04 PM 40.9820 -92.4330 258° West 387 445 36,000  Level FlightAware ADS-B
Thu 01:24:40 PM 40.9700 -92.5040 257° West 387 445 36,000  Level FlightAware ADS-B
Thu 01:25:38 PM 40.9480 -92.6700 260° West 389 448 36,000  Level FlightAware ADS-B
Thu 01:26:13 PM 40.9340 -92.7670 259° West 390 449 36,000  Level FlightAware ADS-B
Thu 01:27:08 PM 40.9170 -92.8750 258° West 390 449 36,000  Level FlightAware ADS-B
Thu 01:27:41 PM 40.9030 -92.9710 259° West 393 452 36,000  Level FlightAware ADS-B
Thu 01:28:42 PM 40.8810 -93.1150 259° West 393 452 36,000  Level FlightAware ADS-B
Thu 01:29:28 PM 40.8660 -93.2060 258° West 393 452 36,000  Level FlightAware ADS-B
Thu 01:30:04 PM 40.8550 -93.2780 259° West 393 452 36,000  Level FlightAware ADS-B
Thu 01:30:53 PM 40.8390 -93.3760 258° West 393 452 36,000  Level FlightAware ADS-B
Thu 01:31:31 PM 40.8270 -93.4520 258° West 393 452 36,000  Level FlightAware ADS-B
Thu 01:32:07 PM 40.8150 -93.5240 258° West 393 452 36,000  Level FlightAware ADS-B
Thu 01:32:55 PM 40.8000 -93.6200 258° West 393 452 36,000  Level FlightAware ADS-B
Thu 01:33:31 PM 40.7880 -93.6920 258° West 393 452 36,000  Level FlightAware ADS-B
Thu 01:34:20 PM 40.7720 -93.7890 258° West 393 452 36,000  Level FlightAware ADS-B
Thu 01:34:56 PM 40.7610 -93.8610 259° West 393 452 36,000  Level FlightAware ADS-B
Thu 01:35:59 PM 40.7140 -94.1590 258° West 403 464 36,000  Level FlightAware ADS-B
Thu 01:36:43 PM 40.6970 -94.2630 258° West 403 464 36,000  Level FlightAware ADS-B
Thu 01:37:22 PM 40.6810 -94.3560 257° West 402 463 36,000  Level FlightAware ADS-B
Thu 01:38:13 PM 40.6620 -94.4670 257° West 402 463 36,000  Level FlightAware ADS-B
Thu 01:38:50 PM 40.6490 -94.5420 257° West 402 463 36,000  Level FlightAware ADS-B
Thu 01:39:38 PM 40.6320 -94.6390 257° West 402 463 36,000  Level FlightAware ADS-B
Thu 01:40:14 PM 40.6190 -94.7120 257° West 402 463 36,000  Level FlightAware ADS-B
Thu 01:40:51 PM 40.6060 -94.7870 257° West 402 463 36,000  Level FlightAware ADS-B
Thu 01:41:27 PM 40.5930 -94.8600 257° West 402 463 36,000  Level FlightAware ADS-B
Thu 01:42:16 PM 40.5760 -94.9600 257° West 402 463 36,000  Level FlightAware ADS-B
Thu 01:43:27 PM 40.5500 -95.1040 257° West 402 463 36,000  Level FlightAware ADS-B
Thu 01:44:03 PM 40.5380 -95.1770 258° West 402 463 36,000  Level FlightAware ADS-B
Thu 01:44:50 PM 40.5210 -95.2720 257° West 402 463 36,000  Level FlightAware ADS-B
Thu 01:45:26 PM 40.5080 -95.3450 257° West 402 463 36,000  Level FlightAware ADS-B
Thu 01:46:03 PM 40.4950 -95.4200 257° West 402 463 36,000  Level FlightAware ADS-B
Thu 01:46:51 PM 40.4780 -95.5170 257° West 402 463 36,000  Level FlightAware ADS-B
Thu 01:47:27 PM 40.4650 -95.5900 257° West 402 463 36,000  Level FlightAware ADS-B
Thu 01:48:50 PM 40.3922 -96.0042 257° West 400 460 36,000  Level Minneapolis Center
Thu 01:49:52 PM 40.3669 -96.1447 257° West 398 458 36,000  Level Minneapolis Center
Thu 01:50:55 PM 40.3403 -96.2892 256° West 400 460 36,000  Level Minneapolis Center
Thu 01:51:57 PM 40.3133 -96.4333 256° West 403 464 36,000  Level Minneapolis Center
Thu 01:52:59 PM 40.2856 -96.5803 256° West 407 468 36,000  Level Minneapolis Center
Thu 01:54:01 PM 40.2589 -96.7242 256° West 408 470 36,000  Level Minneapolis Center
Thu 01:55:03 PM 40.2308 -96.8714 256° West 410 472 36,000  Level Minneapolis Center
Thu 01:56:05 PM 40.1978 -97.0483 256° West 413 475 36,000  Level Minneapolis Center
Thu 01:57:07 PM 40.1689 -97.1947 256° West 415 478 36,000  Level Minneapolis Center
Thu 01:58:09 PM 40.1411 -97.3422 256° West 415 478 36,000  Level Minneapolis Center
Thu 01:59:11 PM 40.1122 -97.4889 256° West 416 479 36,000  Level Minneapolis Center
Thu 02:00:13 PM 40.0828 -97.6375 256° West 418 481 36,000  Level Minneapolis Center
Thu 02:01:15 PM 40.0528 -97.7881 255° West 421 484 36,000  Level Minneapolis Center
Thu 02:02:18 PM 40.0161 -97.9703 255° West 426 490 36,000  Level Minneapolis Center
Thu 02:03:20 PM 39.9853 -98.1225 255° West 431 496 36,000  Level Minneapolis Center
Thu 02:04:22 PM 39.9544 -98.2783 256° West 439 505 36,000  Level Minneapolis Center
Thu 02:05:24 PM 39.9219 -98.4364 255° West 446 513 36,000  Level Minneapolis Center
Thu 02:06:26 PM 39.8889 -98.5906 254° West 444 511 36,000  Level Minneapolis Center
Thu 02:07:28 PM 39.8572 -98.7489 255° West 448 516 36,000  Level Minneapolis Center
Thu 02:08:30 PM 39.8239 -98.9050 255° West 447 514 36,000  Level Minneapolis Center
Thu 02:09:28 PM 39.7914 -99.0597 255° West 442 509 36,000  Level Denver Center
Thu 02:10:30 PM 39.7592 -99.2100 254° West 434 499 36,000  Level Denver Center
Thu 02:11:32 PM 39.7256 -99.3647 254° West 439 505 36,000  Level Denver Center
Thu 02:12:34 PM 39.6861 -99.5472 254° West 438 504 36,000  Level Denver Center
Thu 02:13:36 PM 39.6539 -99.7006 255° West 438 504 36,000  Level Denver Center
Thu 02:14:38 PM 39.6203 -99.8514 254° West 436 502 36,000  Level Denver Center
Thu 02:15:41 PM 39.5844 -100.0122 254° West 433 498 36,000  Level Denver Center
Thu 02:16:43 PM 39.5525 -100.1542 254° West 430 495 36,000  Level Denver Center
Thu 02:17:45 PM 39.5153 -100.3203 254° West 429 494 36,000  Level Denver Center
Thu 02:18:47 PM 39.4842 -100.4631 254° West 430 495 36,000  Level Denver Center
Thu 02:19:49 PM 39.4464 -100.6253 253° West 424 488 36,000  Level Denver Center
Thu 02:20:51 PM 39.4144 -100.7678 254° West 428 493 36,000  Level Denver Center
Thu 02:21:53 PM 39.3756 -100.9344 253° West 432 497 36,000  Level Denver Center
Thu 02:22:55 PM 39.3442 -101.0756 254° West 428 493 36,000  Level Denver Center
Thu 02:23:57 PM 39.3117 -101.2139 253° West 422 486 36,000  Level Denver Center
Thu 02:24:59 PM 39.2728 -101.3758 253° West 423 487 36,000  Level Denver Center
Thu 02:26:01 PM 39.2414 -101.5144 254° West 422 486 36,000  Level Denver Center
Thu 02:27:03 PM 39.2022 -101.6753 253° West 421 484 36,000  Level Denver Center
Thu 02:28:05 PM 39.1694 -101.8117 253° West 422 486 36,000  Level Denver Center
Thu 02:29:08 PM 39.1308 -101.9694 253° West 417 480 36,000  Level Denver Center
Thu 02:30:10 PM 39.0972 -102.1100 253° West 421 484 36,000  Level Denver Center
Thu 02:31:12 PM 39.0586 -102.2672 252° West 422 486 36,000  Level Denver Center
Thu 02:32:14 PM 39.0217 -102.4200 253° West 423 487 36,000  Level Denver Center
Thu 02:33:16 PM 38.9869 -102.5581 252° West 425 489 36,000  Level Denver Center
Thu 02:34:18 PM 38.9514 -102.7033 253° West 424 488 36,000  Level Denver Center
Thu 02:35:20 PM 38.9114 -102.8622 252° West 423 487 36,000  Level Denver Center
Thu 02:36:22 PM 38.8761 -103.0036 252° West 419 482 36,000  Level Denver Center
Thu 02:37:24 PM 38.8400 -103.1478 252° West 421 484 36,000  Level Denver Center
Thu 02:38:26 PM 38.8039 -103.2897 252° West 420 483 36,000  Level Denver Center
Thu 02:39:28 PM 38.7639 -103.4472 252° West 421 484 36,000  Level Denver Center
Thu 02:40:30 PM 38.7422 -103.6064 260° West 410 472 36,000  Level Denver Center
Thu 02:41:33 PM 38.7286 -103.7442 263° West 410 472 36,000  Level Denver Center
Thu 02:42:35 PM 38.7153 -103.8797 263° West 405 466 36,000  Level Denver Center
Thu 02:43:37 PM 38.7036 -104.0408 265° West 405 466 36,000  Level Denver Center
Thu 02:44:39 PM 38.6972 -104.1797 267° West 407 468 36,000  Level Denver Center
Thu 02:45:41 PM 38.6881 -104.3244 265° West 407 468 36,000  Level Denver Center
Thu 02:46:43 PM 38.6775 -104.4983 266° West 407 468 36,000  Level Denver Center
Thu 02:47:45 PM 38.6500 -104.6372 256° West 405 466 36,000  Level Denver Center
Thu 02:48:47 PM 38.6117 -104.7739 250° West 407 468 36,000  Level Denver Center
Thu 02:49:49 PM 38.5731 -104.9072 250° West 402 463 36,000  Level Denver Center
Thu 02:50:51 PM 38.5333 -105.0411 249° West 401 461 36,000  Level Denver Center
Thu 02:55:58 PM 38.3250 -105.7390 249° West 403 464 36,000  Level FlightAware ADS-B
Thu 02:56:44 PM 38.2960 -105.8370 249° West 402 463 36,000  Level FlightAware ADS-B
Thu 02:57:24 PM 38.2680 -105.9290 249° West 404 465 36,000  Level FlightAware ADS-B
Thu 02:58:18 PM 38.2310 -106.0480 248° West 405 466 36,000  Level FlightAware ADS-B
Thu 02:59:03 PM 38.2020 -106.1460 249° West 405 466 36,000  Level FlightAware ADS-B
Thu 02:59:43 PM 38.1750 -106.2340 249° West 405 466 36,000  Level FlightAware ADS-B
Thu 03:00:23 PM 38.1470 -106.3240 248° West 405 466 36,000  Level FlightAware ADS-B
Thu 03:01:10 PM 38.1150 -106.4290 249° West 406 467 36,000  Level FlightAware ADS-B
Thu 03:01:50 PM 38.0880 -106.5150 248° West 408 470 36,000  Level FlightAware ADS-B
Thu 03:02:32 PM 38.0580 -106.6110 248° West 408 470 36,000  Level FlightAware ADS-B
Thu 03:03:12 PM 38.0310 -106.6990 249° West 410 472 36,000  Level FlightAware ADS-B
Thu 03:03:59 PM 37.9980 -106.8050 248° West 411 473 36,000  Level FlightAware ADS-B
Thu 03:04:38 PM 37.9700 -106.8930 248° West 413 475 36,000  Level FlightAware ADS-B
Thu 03:05:18 PM 37.9420 -106.9820 248° West 414 476 36,000  Level FlightAware ADS-B
Thu 03:06:02 PM 37.9100 -107.0810 248° West 414 476 36,000  Level FlightAware ADS-B
Thu 03:06:46 PM 37.8790 -107.1790 248° West 413 475 36,000  Level FlightAware ADS-B
Thu 03:07:26 PM 37.8510 -107.2690 249° West 411 473 36,000  Level FlightAware ADS-B
Thu 03:08:08 PM 37.8210 -107.3630 248° West 410 472 36,000  Level FlightAware ADS-B
Thu 03:08:52 PM 37.7890 -107.4620 248° West 410 472 36,000  Level FlightAware ADS-B
Thu 03:09:24 PM 37.7670 -107.5310 248° West 410 472 36,000  Level FlightAware ADS-B
Thu 03:10:09 PM 37.7350 -107.6300 248° West 410 472 36,000  Level FlightAware ADS-B
Thu 03:10:50 PM 37.7060 -107.7220 248° West 411 473 36,000  Level FlightAware ADS-B
Thu 03:11:32 PM 37.6750 -107.8160 247° West 412 474 36,000  Level FlightAware ADS-B
Thu 03:12:16 PM 37.6430 -107.9130 247° West 410 472 36,000  Level FlightAware ADS-B
Thu 03:12:53 PM 37.6170 -107.9940 248° West 410 472 36,000  Level FlightAware ADS-B
Thu 03:13:38 PM 37.5840 -108.0940 247° West 412 474 36,000  Level FlightAware ADS-B
Thu 03:14:12 PM 37.5590 -108.1700 247° West 412 474 36,000  Level FlightAware ADS-B
Thu 03:14:55 PM 37.5280 -108.2660 248° West 413 475 36,000  Level FlightAware ADS-B
Thu 03:15:35 PM 37.4990 -108.3530 247° West 413 475 36,000  Level FlightAware ADS-B
Thu 03:16:15 PM 37.4720 -108.4350 247° West 415 478 36,000  Level FlightAware ADS-B
Thu 03:17:00 PM 37.4370 -108.5400 247° West 415 478 36,000  Level FlightAware ADS-B
Thu 03:17:53 PM 37.4040 -108.6380 247° West 415 478 36,000  Level FlightAware ADS-B
Thu 03:18:31 PM 37.3800 -108.7100 247° West 415 478 36,000  Level FlightAware ADS-B
Thu 03:19:07 PM 37.3570 -108.7780 247° West 415 478 36,000  Level FlightAware ADS-B
Thu 03:19:44 PM 37.4210 -108.5870 67° East 36,000  Level FlightAware ADS-B
Thu 03:20:14 PM 37.2920 -108.9700 247° West 414 476 36,000  Level FlightAware ADS-B
Thu 03:20:51 PM 37.2690 -109.0400 248° West 414 476 36,000  Level FlightAware ADS-B
Thu 03:21:39 PM 37.2380 -109.1300 247° West 414 476 36,000  Level FlightAware ADS-B
Thu 03:22:16 PM 37.2150 -109.2000 248° West 414 476 36,000  Level FlightAware ADS-B
Thu 03:23:04 PM 37.1840 -109.2900 247° West 414 476 36,000  Level FlightAware ADS-B
Thu 03:23:41 PM 37.1610 -109.3600 248° West 414 476 36,000  Level FlightAware ADS-B
Thu 03:24:17 PM 37.1380 -109.4280 247° West 414 476 36,000  Level FlightAware ADS-B
Thu 03:25:07 PM 37.1060 -109.5220 247° West 414 476 36,000  Level FlightAware ADS-B
Thu 03:25:41 PM 37.0840 -109.5860 247° West 414 476 36,000  Level FlightAware ADS-B
Thu 03:26:31 PM 37.0530 -109.6790 247° West 414 476 36,000  Level FlightAware ADS-B
Thu 03:27:07 PM 37.0300 -109.7470 247° West 414 476 36,000  Level FlightAware ADS-B
Thu 03:28:08 PM 36.9910 -109.8610 247° West 414 476 36,000  Level FlightAware ADS-B
Thu 03:28:45 PM 36.9670 -109.9310 247° West 414 476 36,000  Level FlightAware ADS-B
Thu 03:29:33 PM 36.9370 -110.0210 247° West 414 476 36,000  Level FlightAware ADS-B
Thu 03:32:11 PM 36.7300 -110.5330 243° Southwest 418 481 36,000  Level FlightAware ADS-B
Thu 03:32:56 PM 36.6810 -110.6230 236° Southwest 420 483 36,000  Level FlightAware ADS-B
Thu 03:33:35 PM 36.6380 -110.7030 236° Southwest 421 484 36,000  Level FlightAware ADS-B
Thu 03:34:16 PM 36.5930 -110.7850 236° Southwest 422 486 36,000  Level FlightAware ADS-B
Thu 03:34:55 PM 36.5500 -110.8640 236° Southwest 421 484 36,000  Level FlightAware ADS-B
Thu 03:35:37 PM 36.5050 -110.9470 236° Southwest 422 486 36,000  Level FlightAware ADS-B
Thu 03:36:15 PM 36.4620 -111.0250 236° Southwest 421 484 36,000  Level FlightAware ADS-B
Thu 03:36:57 PM 36.4180 -111.1080 237° Southwest 421 484 36,000  Level FlightAware ADS-B
Thu 03:37:42 PM 36.3700 -111.1980 236° Southwest 420 483 36,000  Level FlightAware ADS-B
Thu 03:38:25 PM 36.3230 -111.2860 236° Southwest 420 483 36,000  Level FlightAware ADS-B
Thu 03:39:07 PM 36.2780 -111.3690 236° Southwest 421 484 36,000  Level FlightAware ADS-B
Thu 03:39:51 PM 36.2340 -111.4590 239° Southwest 420 483 36,000  Level FlightAware ADS-B
Thu 03:41:11 PM 36.1590 -111.6290 241° Southwest 421 484 36,000  Level FlightAware ADS-B
Thu 03:41:56 PM 36.1170 -111.7230 241° Southwest 421 484 36,000  Level FlightAware ADS-B
Thu 03:42:39 PM 36.0790 -111.8100 242° Southwest 421 484 36,000  Level FlightAware ADS-B
Thu 03:43:16 PM 36.0430 -111.8930 242° Southwest 420 483 36,000  Level FlightAware ADS-B
Thu 03:43:56 PM 36.0120 -111.9820 247° West 420 483 36,000  Level FlightAware ADS-B
Thu 03:44:36 PM 35.9820 -112.0710 247° West 421 484 36,000  Level FlightAware ADS-B
Thu 03:45:16 PM 35.9520 -112.1570 247° West 422 486 36,000  Level FlightAware ADS-B
Thu 03:45:55 PM 35.9230 -112.2440 248° West 423 487 36,000  Level FlightAware ADS-B
Thu 03:46:34 PM 35.8930 -112.3280 246° West 423 487 36,000  Level FlightAware ADS-B
Thu 03:47:14 PM 35.8620 -112.4190 247° West 424 488 36,000  Level FlightAware ADS-B
Thu 03:47:58 PM 35.8270 -112.5190 247° West 425 489 36,000  Level FlightAware ADS-B
Thu 03:48:42 PM 35.7930 -112.6160 247° West 425 489 36,000  Level FlightAware ADS-B
Thu 03:49:22 PM 35.7630 -112.7040 247° West 425 489 36,000  Level FlightAware ADS-B
Thu 03:50:08 PM 35.7270 -112.8060 247° West 426 490 36,000  Level FlightAware ADS-B
Thu 03:50:48 PM 35.6960 -112.8940 247° West 425 489 36,000  Level FlightAware ADS-B
Thu 03:51:30 PM 35.6620 -112.9890 246° West 426 490 36,000  Level FlightAware ADS-B
Thu 03:52:12 PM 35.6300 -113.0810 247° West 425 489 36,000  Level FlightAware ADS-B
Thu 03:52:55 PM 35.5960 -113.1750 246° West 425 489 36,000  Level FlightAware ADS-B
Thu 03:53:36 PM 35.5640 -113.2650 246° West 427 491 36,000  Level FlightAware ADS-B
Thu 03:54:14 PM 35.5340 -113.3500 247° West 430 495 36,000  Level FlightAware ADS-B
Thu 03:54:55 PM 35.5010 -113.4430 246° West 431 496 36,000  Level FlightAware ADS-B
Thu 03:55:41 PM 35.4640 -113.5440 246° West 432 497 36,000  Level FlightAware ADS-B
Thu 03:56:20 PM 35.4330 -113.6310 246° West 433 498 36,000  Level FlightAware ADS-B
Thu 03:57:03 PM 35.3980 -113.7270 246° West 432 497 36,000  Level FlightAware ADS-B
Thu 03:57:41 PM 35.3670 -113.8140 246° West 431 496 36,000  Level FlightAware ADS-B
Thu 03:58:22 PM 35.3340 -113.9030 246° West 431 496 36,000  Level FlightAware ADS-B
Thu 03:59:04 PM 35.2990 -114.0010 246° West 430 495 36,000  Level FlightAware ADS-B
Thu 03:59:38 PM 35.2730 -114.0700 245° Southwest 431 496 36,000  Level FlightAware ADS-B
Thu 04:00:22 PM 35.2360 -114.1710 246° West 430 495 36,000  Level FlightAware ADS-B
Thu 04:01:06 PM 35.2000 -114.2700 246° West 430 495 36,000  Level FlightAware ADS-B
Thu 04:01:46 PM 35.1670 -114.3590 246° West 430 495 36,000  Level FlightAware ADS-B
Thu 04:02:26 PM 35.1350 -114.4460 246° West 431 496 36,000  Level FlightAware ADS-B
Thu 04:03:11 PM 35.0980 -114.5460 246° West 431 496 36,000  Level FlightAware ADS-B
Thu 04:03:51 PM 35.0660 -114.6330 246° West 431 496 36,000  Level FlightAware ADS-B
Thu 04:04:27 PM 35.0360 -114.7140 246° West 431 496 36,000  Level FlightAware ADS-B
Thu 04:05:23 PM 34.9890 -114.8400 246° West 433 498 36,000  Level FlightAware ADS-B
Thu 04:06:05 PM 34.9540 -114.9320 245° Southwest 433 498 36,000  Level FlightAware ADS-B
Thu 04:06:37 PM 34.9280 -115.0010 245° Southwest 433 498 36,000  Level FlightAware ADS-B
Thu 04:07:23 PM 34.8890 -115.1050 245° Southwest 433 498 36,000  Level FlightAware ADS-B
Thu 04:07:59 PM 34.8580 -115.1850 245° Southwest 433 498 36,000  Level FlightAware ADS-B
Thu 04:08:38 PM 34.8360 -115.2730 253° West 441 507 36,000  Level FlightAware ADS-B
Thu 04:09:20 PM 34.8350 -115.3650 269° West 443 510 36,000 -346 Level FlightAware ADS-B
Thu 04:09:30 PM 34.8660 -115.4020 316° Northwest 456 525 35,700 -1,043 Descending FlightAware ADS-B
Thu 04:10:29 PM 34.8870 -115.5400 281° West 444 511 34,800 -935 Descending FlightAware ADS-B
Thu 04:10:47 PM 34.8720 -115.5770 244° Southwest 435 501 34,500 -327 Descending FlightAware ADS-B
Thu 04:11:24 PM 34.8380 -115.6420 238° Southwest 435 501 34,500  Level FlightAware ADS-B
Thu 04:12:12 PM 34.7930 -115.7260 237° Southwest 435 501 34,500  Level FlightAware ADS-B
Thu 04:12:49 PM 34.7580 -115.7900 236° Southwest 435 501 34,500  Level FlightAware ADS-B
Thu 04:13:25 PM 34.7250 -115.8530 238° Southwest 435 501 34,500  Level FlightAware ADS-B
Thu 04:14:02 PM 34.6900 -115.9180 237° Southwest 435 501 34,500  Level FlightAware ADS-B
Thu 04:14:50 PM 34.6460 -116.0010 237° Southwest 435 501 34,500  Level FlightAware ADS-B
Thu 04:15:26 PM 34.6120 -116.0640 237° Southwest 435 501 34,500  Level FlightAware ADS-B
Thu 04:16:16 PM 34.5650 -116.1510 237° Southwest 435 501 34,500  Level FlightAware ADS-B
Thu 04:16:52 PM 34.5320 -116.2140 238° Southwest 435 501 34,500  Level FlightAware ADS-B
Thu 04:17:41 PM 34.4860 -116.2990 237° Southwest 435 501 34,500  Level FlightAware ADS-B
Thu 04:18:18 PM 34.4520 -116.3640 238° Southwest 435 501 34,500  Level FlightAware ADS-B
Thu 04:18:54 PM 34.4180 -116.4260 236° Southwest 435 501 34,500  Level FlightAware ADS-B
Thu 04:19:31 PM 34.3840 -116.4910 238° Southwest 435 501 34,500 -6,467 Level FlightAware ADS-B
Thu 04:20:24 PM 34.2940 -116.7410 247° West 381 438 24,800 -7,400 Descending FlightAware ADS-B
Thu 04:21:01 PM 34.2590 -116.8110 239° Southwest 369 425 23,400 -2,416 Descending FlightAware ADS-B
Thu 04:21:41 PM 34.2250 -116.8780 238° Southwest 366 421 21,700 -2,561 Descending FlightAware ADS-B
Thu 04:22:23 PM 34.1880 -116.9520 239° Southwest 366 421 19,900 -2,114 Descending FlightAware ADS-B
Thu 04:23:09 PM 34.1490 -117.0320 240° Southwest 355 409 18,600 -1,295 Descending FlightAware ADS-B
Thu 04:23:51 PM 34.1250 -117.1150 251° West 385 443 18,000 -1,151 Descending FlightAware ADS-B
Thu 04:24:22 PM 34.1080 -117.1770 252° West 396 456 17,200 -1,974 Descending FlightAware ADS-B
Thu 04:25:07 PM 34.0810 -117.2710 251° West 389 448 15,500 -2,296 Descending FlightAware ADS-B
Thu 04:25:43 PM 34.0610 -117.3430 251° West 386 444 14,100 -1,143 Descending FlightAware ADS-B
Thu 04:26:31 PM 34.0340 -117.4410 252° West 381 438 13,900 -202 Descending FlightAware ADS-B
Thu 04:27:12 PM 34.0330 -117.5290 269° West 381 438 13,800 -1,143 Descending FlightAware ADS-B
Thu 04:27:55 PM 34.0300 -117.6210 268° West 358 412 12,300 -1,271 Descending FlightAware ADS-B
Thu 04:28:37 PM 34.0230 -117.6970 264° West 307 353 12,000 -1,077 Descending FlightAware ADS-B
Thu 04:29:13 PM 34.0160 -117.7550 262° West 301 346 10,900 -1,935 Descending FlightAware ADS-B
Thu 04:29:39 PM 34.0120 -117.7990 264° West 299 344 10,000 -2,000 Descending FlightAware ADS-B
Thu 04:29:55 PM 34.0100 -117.8240 264° West 298 343 9,500 -1,909 Descending FlightAware ADS-B
Thu 04:30:23 PM 34.0050 -117.8700 263° West 297 342 8,600 -1,846 Descending FlightAware ADS-B
Thu 04:30:47 PM 34.0010 -117.9100 263° West 292 336 7,900 -1,800 Descending FlightAware ADS-B
Thu 04:31:13 PM 33.9970 -117.9530 264° West 287 330 7,100 -1,636 Descending FlightAware ADS-B
Thu 04:31:31 PM 33.9940 -117.9810 263° West 280 322 6,700 -1,565 Descending FlightAware ADS-B
Thu 04:31:59 PM 33.9900 -118.0240 264° West 276 318 5,900 -1,607 Descending FlightAware ADS-B
Thu 04:32:27 PM 33.9860 -118.0660 263° West 268 308 5,200 -1,286 Descending FlightAware ADS-B
Thu 04:32:55 PM 33.9820 -118.1060 263° West 253 291 4,700 -1,091 Descending FlightAware ADS-B
Thu 04:33:11 PM 33.9800 -118.1290 264° West 242 278 4,400 -1,364 Descending FlightAware ADS-B
Thu 04:33:39 PM 33.9760 -118.1650 262° West 231 266 3,700 -1,179 Descending FlightAware ADS-B
Thu 04:34:07 PM 33.9730 -118.1980 264° West 208 239 3,300 -906 Descending FlightAware ADS-B
Thu 04:34:32 PM 33.9700 -118.2250 262° West 205 236 2,900 -947 Descending FlightAware ADS-B
Thu 04:35:04 PM 33.9670 -118.2570 264° West 179 206 2,400 -873 Descending FlightAware ADS-B
Thu 04:35:27 PM 33.9640 -118.2800 261° West 177 204 2,100 -846 Descending FlightAware ADS-B
Thu 04:36:22 PM 33.9590 -118.3300 263° West 162 186 1,300 -821 Descending FlightAware ADS-B
Thu 04:37:02 PM 33.9560 -118.3600 263° West 147 169 800 -800 Descending FlightAware ADS-B
Thu 04:37:37 PM 33.9530 -118.3900 263° West 142 163 300 -764 Descending FlightAware ADS-B
Thu 04:37:57 PM 33.9520 -118.4050 265° West 145 167 100 -267 Descending FlightAware ADS-B
Thu 04:38:22 PM 33.9500 -118.4220 262° West 145 167 100  Level FlightAware ADS-B
Thu 04:46:00 PM 33.9425 -118.4081 259° West  Level Estimated
Thu 04:47:00 PM 33.9425 -118.4081 259° West  Level Estimated

Login

Don't have an account? Register now (free) for customized features, flight alerts, and more!